createdAt,value
2017-11-24T00:01:10.094Z,11.70
2017-11-24T00:03:37.614Z,14.87
2017-11-24T00:06:05.287Z,11.10
2017-11-24T00:08:32.819Z,10.90
2017-11-24T00:11:00.334Z,15.43
2017-11-24T00:13:27.919Z,17.07
2017-11-24T00:15:55.433Z,13.83
2017-11-24T00:18:23.112Z,15.40
2017-11-24T00:20:50.656Z,12.70
2017-11-24T00:23:18.195Z,12.00
2017-11-24T00:25:45.759Z,9.10
2017-11-24T00:28:13.340Z,25.50
2017-11-24T00:30:40.891Z,7.23
2017-11-24T00:33:08.433Z,16.20
2017-11-24T00:35:35.987Z,10.33
2017-11-24T00:38:03.511Z,15.93
2017-11-24T00:40:31.088Z,17.33
2017-11-24T00:42:58.615Z,13.60
2017-11-24T00:45:26.134Z,14.00
2017-11-24T00:47:53.714Z,11.17
2017-11-24T00:50:21.231Z,11.37
2017-11-24T00:52:48.779Z,17.10
2017-11-24T00:55:16.431Z,21.17
2017-11-24T00:57:43.962Z,15.70
2017-11-24T01:00:11.520Z,13.80
2017-11-24T01:02:39.096Z,14.87
2017-11-24T01:05:06.634Z,23.97
2017-11-24T01:07:34.157Z,10.73
2017-11-24T01:10:01.704Z,18.50
2017-11-24T01:12:29.235Z,15.83
2017-11-24T01:14:56.927Z,17.30
2017-11-24T01:17:24.477Z,10.37
2017-11-24T01:19:51.989Z,7.27
2017-11-24T01:22:19.540Z,13.83
2017-11-24T01:24:47.063Z,19.23
2017-11-24T01:27:14.638Z,16.73
2017-11-24T01:29:42.163Z,22.07
2017-11-24T01:32:09.678Z,15.30
2017-11-24T01:34:37.225Z,11.40
2017-11-24T01:37:04.812Z,18.20
2017-11-24T01:39:32.334Z,20.43
2017-11-24T01:42:00.005Z,11.93
2017-11-24T01:44:27.574Z,10.60
2017-11-24T01:46:55.090Z,12.63
2017-11-24T01:49:22.624Z,20.70
2017-11-24T01:51:50.166Z,11.70
2017-11-24T01:54:17.734Z,12.20
2017-11-24T01:56:45.264Z,11.60
2017-11-24T01:59:12.781Z,22.03
2017-11-24T02:01:40.342Z,8.33
2017-11-24T02:04:08.075Z,17.63
2017-11-24T02:06:35.589Z,16.60
2017-11-24T02:09:03.125Z,11.53
2017-11-24T02:11:30.796Z,15.53
2017-11-24T02:13:58.316Z,19.10
2017-11-24T02:16:25.833Z,18.30
2017-11-24T02:18:53.498Z,16.93
2017-11-24T02:21:21.042Z,18.80
2017-11-24T02:23:48.563Z,16.33
2017-11-24T02:26:16.125Z,16.17
2017-11-24T02:28:43.681Z,13.83
2017-11-24T02:31:11.259Z,25.87
2017-11-24T02:33:38.816Z,10.43
2017-11-24T02:36:06.391Z,23.17
2017-11-24T02:38:33.927Z,14.37
2017-11-24T02:41:01.516Z,20.10
2017-11-24T02:43:29.050Z,26.83
2017-11-24T02:45:56.591Z,16.80
2017-11-24T02:48:24.289Z,15.60
2017-11-24T02:50:51.830Z,21.97
2017-11-24T02:53:20.321Z,17.00
2017-11-24T02:55:48.029Z,17.97
2017-11-24T02:58:15.587Z,22.17
2017-11-24T03:00:43.097Z,13.70
2017-11-24T03:03:10.671Z,14.93
2017-11-24T03:05:38.181Z,10.80
2017-11-24T03:08:05.712Z,24.07
2017-11-24T03:10:33.271Z,20.07
2017-11-24T03:13:00.811Z,18.00
2017-11-24T03:15:28.373Z,15.33
2017-11-24T03:17:55.914Z,19.20
2017-11-24T03:20:23.661Z,16.10
2017-11-24T03:22:51.684Z,18.27
2017-11-24T03:25:19.198Z,16.30
2017-11-24T03:27:46.742Z,8.13
2017-11-24T03:30:14.271Z,14.57
2017-11-24T03:32:41.837Z,13.70
2017-11-24T03:35:09.357Z,10.00
2017-11-24T03:37:36.987Z,8.43
2017-11-24T03:40:04.571Z,15.43
2017-11-24T03:42:32.128Z,14.67
2017-11-24T03:44:59.796Z,13.73
2017-11-24T03:47:27.322Z,12.57
2017-11-24T03:49:54.839Z,9.93
2017-11-24T03:52:22.381Z,13.80
2017-11-24T03:54:49.924Z,7.30
2017-11-24T03:57:17.662Z,12.93
2017-11-24T03:59:45.202Z,14.90
2017-11-24T04:02:12.708Z,9.63
2017-11-24T04:04:40.260Z,6.67
2017-11-24T04:07:07.791Z,21.27
2017-11-24T04:09:35.365Z,7.73
2017-11-24T04:12:02.942Z,10.17
2017-11-24T04:14:30.463Z,13.50
2017-11-24T04:16:58.028Z,12.77
2017-11-24T04:19:25.612Z,19.10
2017-11-24T04:21:53.210Z,6.23
2017-11-24T04:24:20.801Z,10.77
2017-11-24T04:26:48.315Z,9.87
2017-11-24T04:29:15.821Z,6.70
2017-11-24T04:31:43.570Z,8.70
2017-11-24T04:34:11.086Z,10.03
2017-11-24T04:36:38.592Z,8.87
2017-11-24T04:39:06.142Z,10.33
2017-11-24T04:41:33.739Z,4.70
2017-11-24T04:44:01.285Z,9.23
2017-11-24T04:46:28.831Z,12.40
2017-11-24T04:48:56.392Z,15.60
2017-11-24T04:51:23.934Z,11.30
2017-11-24T04:53:51.447Z,9.00
2017-11-24T04:56:19.027Z,6.33
2017-11-24T04:58:46.546Z,17.20
2017-11-24T05:01:14.061Z,12.63
2017-11-24T05:03:41.626Z,18.30
2017-11-24T05:06:09.148Z,24.87
2017-11-24T05:08:36.657Z,18.60
2017-11-24T05:11:04.243Z,17.47
2017-11-24T05:13:31.753Z,20.37
2017-11-24T05:15:59.276Z,21.03
2017-11-24T05:18:26.822Z,13.70
2017-11-24T05:20:54.361Z,14.40
2017-11-24T05:23:22.023Z,13.40
2017-11-24T05:25:49.595Z,18.50
2017-11-24T05:28:17.114Z,28.63
2017-11-24T05:30:44.626Z,17.77
2017-11-24T05:33:12.163Z,43.10
2017-11-24T05:35:39.777Z,19.10
2017-11-24T05:38:07.300Z,18.80
2017-11-24T05:40:34.826Z,15.53
2017-11-24T05:43:02.387Z,13.10
2017-11-24T05:45:30.144Z,16.37
2017-11-24T05:47:57.665Z,21.03
2017-11-24T05:50:25.182Z,22.63
2017-11-24T05:52:52.743Z,8.37
2017-11-24T05:55:20.266Z,13.50
2017-11-24T05:57:47.795Z,13.17
2017-11-24T06:00:15.364Z,9.43
2017-11-24T06:02:42.905Z,12.57
2017-11-24T06:05:10.436Z,9.97
2017-11-24T06:07:37.998Z,10.10
2017-11-24T06:10:05.546Z,17.70
2017-11-24T06:12:33.246Z,19.33
2017-11-24T06:15:00.770Z,14.97
2017-11-24T06:17:28.306Z,18.23
2017-11-24T06:19:56.068Z,16.00
2017-11-24T06:22:23.618Z,12.83
2017-11-24T06:24:51.134Z,12.47
2017-11-24T06:27:18.986Z,17.20
2017-11-24T06:29:46.520Z,19.70
2017-11-24T06:32:14.126Z,15.73
2017-11-24T06:34:41.702Z,19.47
2017-11-24T06:37:09.231Z,14.93
2017-11-24T06:39:36.746Z,15.80
2017-11-24T06:42:04.327Z,15.40
2017-11-24T06:44:31.861Z,22.93
2017-11-24T06:46:59.382Z,15.00
2017-11-24T06:49:26.917Z,18.90
2017-11-24T06:51:54.438Z,17.40
2017-11-24T06:54:22.230Z,17.90
2017-11-24T06:56:49.728Z,18.70
2017-11-24T06:59:17.254Z,22.87
2017-11-24T07:01:44.803Z,25.57
2017-11-24T07:04:12.333Z,19.70
2017-11-24T07:06:39.913Z,21.13
2017-11-24T07:09:07.467Z,19.93
2017-11-24T07:11:35.040Z,31.43
2017-11-24T07:14:02.560Z,18.67
2017-11-24T07:16:30.082Z,25.63
2017-11-24T07:18:57.644Z,22.57
2017-11-24T07:21:25.182Z,19.33
2017-11-24T07:23:52.708Z,13.50
2017-11-24T07:26:20.436Z,10.60
2017-11-24T07:28:47.998Z,27.60
2017-11-24T07:31:15.519Z,15.17
2017-11-24T07:33:43.102Z,20.43
2017-11-24T07:36:10.697Z,26.73
2017-11-24T07:38:38.234Z,15.50
2017-11-24T07:41:05.777Z,16.27
2017-11-24T07:43:33.323Z,14.63
2017-11-24T07:46:00.844Z,15.97
2017-11-24T07:48:28.574Z,11.30
2017-11-24T07:50:56.093Z,16.03
2017-11-24T07:53:23.612Z,23.27
2017-11-24T07:55:51.192Z,11.33
2017-11-24T07:58:18.697Z,15.03
2017-11-24T08:00:46.221Z,10.13
2017-11-24T08:03:13.800Z,9.87
2017-11-24T08:05:41.322Z,18.50
2017-11-24T08:08:08.851Z,17.10
2017-11-24T08:10:36.399Z,12.00
2017-11-24T08:13:03.936Z,14.33
2017-11-24T08:15:31.477Z,19.43
2017-11-24T08:17:58.985Z,21.10
2017-11-24T08:20:26.561Z,13.20
2017-11-24T08:22:54.083Z,15.53
2017-11-24T08:25:21.604Z,11.30
2017-11-24T08:27:49.147Z,20.40
2017-11-24T08:30:16.679Z,14.60
2017-11-24T08:32:44.386Z,14.77
2017-11-24T08:35:11.902Z,14.17
2017-11-24T08:37:39.438Z,19.47
2017-11-24T08:40:06.972Z,14.67
2017-11-24T08:42:34.682Z,14.97
2017-11-24T08:45:02.215Z,24.40
2017-11-24T08:47:35.273Z,17.50
2017-11-24T08:50:02.823Z,24.63
2017-11-24T08:52:30.337Z,9.83
2017-11-24T08:54:57.873Z,11.80
2017-11-24T08:57:25.425Z,12.43
2017-11-24T08:59:52.942Z,15.30
2017-11-24T09:02:20.481Z,13.33
2017-11-24T09:04:48.033Z,14.27
2017-11-24T09:07:15.550Z,15.40
2017-11-24T09:09:43.101Z,20.23
2017-11-24T09:12:10.650Z,21.40
2017-11-24T09:14:38.192Z,23.57
2017-11-24T09:17:05.772Z,19.10
2017-11-24T09:19:33.341Z,17.23
2017-11-24T09:22:00.895Z,18.23
2017-11-24T09:24:28.437Z,20.67
2017-11-24T09:26:56.041Z,20.40
2017-11-24T09:29:23.602Z,21.83
2017-11-24T09:31:51.147Z,28.60
2017-11-24T09:34:18.817Z,35.70
2017-11-24T09:36:46.366Z,31.60
2017-11-24T09:39:13.885Z,40.20
2017-11-24T09:41:41.482Z,30.97
2017-11-24T09:44:09.013Z,33.30
2017-11-24T09:46:36.534Z,30.40
2017-11-24T09:49:04.117Z,29.33
2017-11-24T09:51:31.714Z,35.33
2017-11-24T09:53:59.372Z,32.20
2017-11-24T09:56:26.938Z,27.67
2017-11-24T09:58:54.494Z,29.57
2017-11-24T10:01:22.054Z,34.53
2017-11-24T10:03:49.623Z,29.00
2017-11-24T10:06:17.192Z,26.93
2017-11-24T10:08:44.757Z,34.50
2017-11-24T10:11:12.286Z,48.03
2017-11-24T10:13:39.859Z,26.57
2017-11-24T10:16:07.396Z,26.83
2017-11-24T10:18:34.930Z,37.27
2017-11-24T10:21:08.184Z,43.27
2017-11-24T10:23:35.701Z,31.77
2017-11-24T10:26:03.218Z,30.83
2017-11-24T10:28:30.877Z,24.83
2017-11-24T10:30:58.397Z,21.23
2017-11-24T10:33:26.911Z,26.00
2017-11-24T10:35:54.600Z,28.60
2017-11-24T10:38:22.139Z,25.27
2017-11-24T10:40:49.658Z,31.00
2017-11-24T10:43:17.245Z,22.07
2017-11-24T10:45:44.770Z,19.00
2017-11-24T10:48:12.283Z,24.33
2017-11-24T10:50:39.855Z,26.07
2017-11-24T10:53:07.404Z,14.40
2017-11-24T10:55:34.913Z,22.83
2017-11-24T10:58:02.499Z,26.90
2017-11-24T11:00:30.029Z,18.90
2017-11-24T11:02:57.549Z,23.20
2017-11-24T11:05:25.114Z,17.77
2017-11-24T11:07:52.631Z,17.73
2017-11-24T11:10:20.159Z,14.57
2017-11-24T11:12:47.723Z,14.60
2017-11-24T11:15:15.247Z,18.30
2017-11-24T11:17:42.757Z,14.23
2017-11-24T11:20:10.307Z,15.40
2017-11-24T11:22:37.978Z,13.63
2017-11-24T11:25:05.523Z,14.80
2017-11-24T11:27:33.058Z,14.73
2017-11-24T11:30:00.647Z,18.17
2017-11-24T11:32:28.164Z,11.73
2017-11-24T11:34:55.697Z,17.37
2017-11-24T11:37:23.289Z,9.10
2017-11-24T11:39:50.844Z,12.03
2017-11-24T11:42:18.361Z,10.60
2017-11-24T11:44:46.031Z,12.90
2017-11-24T11:47:13.546Z,8.90
2017-11-24T11:50:54.788Z,8.33
2017-11-24T11:53:22.498Z,14.13
2017-11-24T11:55:50.014Z,17.17
2017-11-24T11:58:17.535Z,6.10
2017-11-24T12:00:45.315Z,8.57
2017-11-24T12:03:12.834Z,9.17
2017-11-24T12:05:40.337Z,7.57
2017-11-24T12:08:08.025Z,12.57
2017-11-24T12:10:35.539Z,8.90
2017-11-24T12:13:03.054Z,9.40
2017-11-24T12:15:30.599Z,10.33
2017-11-24T12:17:58.318Z,13.30
2017-11-24T12:20:25.825Z,9.63
2017-11-24T12:22:53.344Z,11.37
2017-11-24T12:25:20.926Z,12.30
2017-11-24T12:27:48.446Z,10.87
2017-11-24T12:30:15.970Z,9.23
2017-11-24T12:32:43.534Z,13.20
2017-11-24T12:35:11.058Z,9.60
2017-11-24T12:37:38.577Z,10.90
2017-11-24T12:40:06.231Z,9.17
2017-11-24T12:42:33.741Z,8.07
2017-11-24T12:45:01.251Z,8.83
2017-11-24T12:47:28.822Z,9.77
2017-11-24T12:49:56.340Z,10.73
2017-11-24T12:52:23.857Z,9.17
2017-11-24T12:54:51.394Z,9.23
2017-11-24T12:57:18.907Z,9.53
2017-11-24T12:59:46.445Z,7.67
2017-11-24T13:02:13.985Z,9.93
2017-11-24T13:04:41.557Z,11.80
2017-11-24T13:07:09.102Z,10.83
2017-11-24T13:09:36.623Z,10.67
2017-11-24T13:12:04.192Z,11.57
2017-11-24T13:14:31.735Z,8.77
2017-11-24T13:16:59.281Z,11.67
2017-11-24T13:19:26.814Z,9.83
2017-11-24T13:21:54.394Z,12.80
2017-11-24T13:24:21.931Z,12.17
2017-11-24T13:26:49.457Z,10.90
2017-11-24T13:29:17.012Z,11.37
2017-11-24T13:31:44.535Z,10.07
2017-11-24T13:34:12.068Z,16.60
2017-11-24T13:36:39.662Z,16.93
2017-11-24T13:39:07.147Z,9.27
2017-11-24T13:41:34.724Z,11.33
2017-11-24T13:44:02.238Z,12.90
2017-11-24T13:46:29.766Z,10.50
2017-11-24T13:48:57.333Z,13.53
2017-11-24T13:51:24.856Z,11.97
2017-11-24T13:53:52.417Z,7.90
2017-11-24T13:56:19.989Z,9.10
2017-11-24T13:58:47.531Z,7.23
2017-11-24T14:01:15.045Z,7.40
2017-11-24T14:03:42.617Z,15.13
2017-11-24T14:06:10.134Z,8.90
2017-11-24T14:08:37.662Z,11.40
2017-11-24T14:11:05.231Z,7.80
2017-11-24T14:13:32.741Z,16.83
2017-11-24T14:16:00.254Z,17.70
2017-11-24T14:18:27.796Z,11.20
2017-11-24T14:20:55.334Z,22.47
2017-11-24T14:23:22.884Z,10.70
2017-11-24T14:25:50.389Z,8.10
2017-11-24T14:28:17.954Z,8.50
2017-11-24T14:30:45.467Z,7.60
2017-11-24T14:33:12.996Z,12.53
2017-11-24T14:35:40.706Z,11.60
2017-11-24T14:38:08.241Z,15.23
2017-11-24T14:40:35.757Z,13.43
2017-11-24T14:43:03.427Z,11.30
2017-11-24T14:45:30.956Z,12.70
2017-11-24T14:47:58.487Z,14.13
2017-11-24T14:50:26.030Z,12.57
2017-11-24T14:52:53.599Z,11.57
2017-11-24T14:55:21.127Z,14.40
2017-11-24T14:57:48.654Z,12.57
2017-11-24T15:00:16.396Z,14.57
2017-11-24T15:02:43.923Z,12.67
2017-11-24T15:05:11.456Z,11.77
2017-11-24T15:07:39.005Z,13.73
2017-11-24T15:10:06.620Z,12.23
2017-11-24T15:12:34.130Z,13.17
2017-11-24T15:15:01.841Z,21.53
2017-11-24T15:17:29.354Z,22.83
2017-11-24T15:19:56.876Z,18.83
2017-11-24T15:22:24.440Z,32.27
2017-11-24T15:24:51.954Z,33.20
2017-11-24T15:27:19.494Z,53.30
2017-11-24T15:29:47.170Z,93.83
2017-11-24T15:32:14.870Z,68.13
2017-11-24T15:34:42.410Z,65.47
2017-11-24T15:37:09.985Z,48.93
2017-11-24T15:39:37.519Z,53.03
2017-11-24T15:42:05.053Z,45.30
2017-11-24T15:44:32.649Z,41.90
2017-11-24T15:47:00.183Z,50.67
2017-11-24T15:49:27.709Z,47.97
2017-11-24T15:51:55.275Z,46.10
2017-11-24T15:54:22.798Z,41.97
2017-11-24T15:56:50.477Z,29.30
2017-11-24T15:59:18.004Z,29.40
2017-11-24T16:01:45.550Z,32.67
2017-11-24T16:04:13.139Z,35.07
2017-11-24T16:06:40.673Z,30.30
2017-11-24T16:09:08.193Z,24.23
2017-11-24T16:11:35.729Z,18.60
2017-11-24T16:14:03.258Z,25.60
2017-11-24T16:16:30.831Z,30.63
2017-11-24T16:18:58.354Z,21.97
2017-11-24T16:21:25.878Z,22.97
2017-11-24T16:23:53.576Z,24.00
2017-11-24T16:26:21.133Z,26.67
2017-11-24T16:28:48.818Z,25.07
2017-11-24T16:31:16.333Z,23.30
2017-11-24T16:33:43.850Z,22.50
2017-11-24T16:36:11.541Z,39.87
2017-11-24T16:38:39.073Z,21.57
2017-11-24T16:41:06.590Z,24.23
2017-11-24T16:43:34.348Z,26.37
2017-11-24T16:46:01.874Z,18.97
2017-11-24T16:48:29.392Z,21.40
2017-11-24T16:50:56.956Z,19.10
2017-11-24T16:53:24.493Z,16.90
2017-11-24T16:55:52.156Z,20.70
2017-11-24T16:58:19.673Z,21.50
2017-11-24T17:00:47.212Z,25.27
2017-11-24T17:03:14.802Z,24.23
2017-11-24T17:05:42.336Z,21.30
2017-11-24T17:08:09.858Z,24.17
2017-11-24T17:10:37.444Z,24.00
2017-11-24T17:13:04.999Z,20.83
2017-11-24T17:15:32.531Z,21.47
2017-11-24T17:18:00.097Z,27.53
2017-11-24T17:20:27.645Z,26.10
2017-11-24T17:22:55.166Z,29.23
2017-11-24T17:25:22.719Z,27.77
2017-11-24T17:27:50.491Z,23.23
2017-11-24T17:30:18.021Z,31.43
2017-11-24T17:32:45.567Z,24.33
2017-11-24T17:35:13.125Z,28.37
2017-11-24T17:37:40.651Z,29.33
2017-11-24T17:40:08.263Z,29.43
2017-11-24T17:42:35.820Z,22.37
2017-11-24T17:45:03.367Z,26.00
2017-11-24T17:47:31.054Z,19.77
2017-11-24T17:49:58.573Z,25.07
2017-11-24T17:52:26.103Z,21.67
2017-11-24T17:54:53.777Z,29.00
2017-11-24T17:57:21.333Z,31.60
2017-11-24T17:59:48.970Z,27.70
2017-11-24T18:02:16.677Z,21.27
2017-11-24T18:04:44.209Z,27.40
2017-11-24T18:07:11.751Z,28.23
2017-11-24T18:09:39.312Z,23.83
2017-11-24T18:12:06.863Z,25.17
2017-11-24T18:14:34.391Z,27.20
2017-11-24T18:17:01.968Z,27.03
2017-11-24T18:19:29.490Z,19.60
2017-11-24T18:21:57.033Z,19.50
2017-11-24T18:24:24.579Z,22.10
2017-11-24T18:26:52.135Z,19.47
2017-11-24T18:29:19.654Z,18.63
2017-11-24T18:31:47.257Z,27.50
2017-11-24T18:34:14.826Z,26.73
2017-11-24T18:36:42.353Z,34.20
2017-11-24T18:39:09.949Z,22.13
2017-11-24T18:41:37.505Z,20.83
2017-11-24T18:44:05.018Z,26.17
2017-11-24T18:46:32.611Z,22.37
2017-11-24T18:49:00.142Z,24.60
2017-11-24T18:51:27.670Z,26.83
2017-11-24T18:53:55.409Z,28.53
2017-11-24T18:56:22.934Z,23.97
2017-11-24T18:58:50.463Z,29.47
2017-11-24T19:01:18.146Z,31.87
2017-11-24T19:03:45.682Z,23.07
2017-11-24T19:06:13.217Z,26.83
2017-11-24T19:08:40.808Z,25.00
2017-11-24T19:11:08.333Z,23.80
2017-11-24T19:13:35.906Z,22.60
2017-11-24T19:16:03.459Z,23.20
2017-11-24T19:18:31.151Z,28.60
2017-11-24T19:20:58.675Z,27.80
2017-11-24T19:23:26.204Z,34.00
2017-11-24T19:25:53.805Z,34.27
2017-11-24T19:28:21.331Z,36.80
2017-11-24T19:30:48.880Z,35.17
2017-11-24T19:33:16.491Z,32.73
2017-11-24T19:35:44.041Z,34.17
2017-11-24T19:38:11.582Z,30.27
2017-11-24T19:40:39.145Z,27.17
2017-11-24T19:43:06.687Z,35.17
2017-11-24T19:45:34.339Z,45.40
2017-11-24T19:48:01.877Z,36.73
2017-11-24T19:50:29.477Z,32.60
2017-11-24T19:52:57.010Z,31.10
2017-11-24T19:55:24.538Z,31.03
2017-11-24T19:57:52.087Z,33.47
2017-11-24T20:00:19.673Z,31.43
2017-11-24T20:02:47.231Z,28.73
2017-11-24T20:05:14.781Z,34.30
2017-11-24T20:07:42.303Z,33.70
2017-11-24T20:10:09.904Z,29.47
2017-11-24T20:12:37.451Z,27.87
2017-11-24T20:15:05.009Z,26.43
2017-11-24T20:17:32.563Z,26.20
2017-11-24T20:20:00.175Z,33.43
2017-11-24T20:22:27.697Z,29.87
2017-11-24T20:24:55.217Z,26.57
2017-11-24T20:27:22.792Z,28.90
2017-11-24T20:29:50.323Z,33.90
2017-11-24T20:32:17.861Z,26.47
2017-11-24T20:34:45.407Z,30.17
2017-11-24T20:37:13.182Z,32.50
2017-11-24T20:39:40.710Z,24.90
2017-11-24T20:42:08.234Z,31.00
2017-11-24T20:44:35.778Z,27.40
2017-11-24T20:47:03.313Z,30.50
2017-11-24T20:49:30.880Z,30.23
2017-11-24T20:51:58.429Z,34.80
2017-11-24T20:54:26.185Z,34.47
2017-11-24T20:56:53.698Z,32.30
2017-11-24T20:59:21.222Z,41.10
2017-11-24T21:01:48.782Z,38.70
2017-11-24T21:04:16.330Z,39.70
2017-11-24T21:06:43.863Z,38.60
2017-11-24T21:09:11.443Z,45.30
2017-11-24T21:11:38.975Z,37.60
2017-11-24T21:14:06.498Z,39.93
2017-11-24T21:16:34.061Z,40.00
2017-11-24T21:19:01.601Z,38.20
2017-11-24T21:21:29.136Z,43.23
2017-11-24T21:23:56.653Z,39.03
2017-11-24T21:26:24.199Z,35.80
2017-11-24T21:28:51.755Z,34.23
2017-11-24T21:31:19.318Z,38.13
2017-11-24T21:33:46.847Z,43.57
2017-11-24T21:36:14.394Z,41.20
2017-11-24T21:38:42.058Z,45.63
2017-11-24T21:41:09.573Z,45.57
2017-11-24T21:43:37.098Z,50.40
2017-11-24T21:46:04.831Z,46.50
2017-11-24T21:48:32.354Z,43.77
2017-11-24T21:50:59.885Z,52.23
2017-11-24T21:53:27.453Z,54.63
2017-11-24T21:55:54.973Z,47.73
2017-11-24T21:58:22.503Z,50.87
2017-11-24T22:00:50.049Z,60.53
2017-11-24T22:03:17.570Z,59.27
2017-11-24T22:05:45.231Z,60.33
2017-11-24T22:08:12.746Z,67.83
2017-11-24T22:10:40.278Z,64.10
2017-11-24T22:13:07.821Z,55.33
2017-11-24T22:15:35.348Z,69.60
2017-11-24T22:18:02.921Z,73.93
2017-11-24T22:20:30.450Z,61.80
2017-11-24T22:22:58.015Z,58.80
2017-11-24T22:25:25.554Z,57.20
2017-11-24T22:27:53.115Z,48.17
2017-11-24T22:30:20.728Z,51.00
2017-11-24T22:32:48.266Z,50.40
2017-11-24T22:35:15.811Z,43.00
2017-11-24T22:37:43.350Z,46.23
2017-11-24T22:40:10.999Z,45.83
2017-11-24T22:42:38.547Z,46.57
2017-11-24T22:45:06.076Z,58.20
2017-11-24T22:47:33.643Z,49.80
2017-11-24T22:50:01.189Z,41.13
2017-11-24T22:52:28.788Z,41.67
2017-11-24T22:54:56.331Z,44.00
2017-11-24T22:57:23.878Z,46.50
2017-11-24T22:59:51.475Z,40.97
2017-11-24T23:02:18.985Z,45.47
2017-11-24T23:04:46.543Z,52.37
2017-11-24T23:07:14.091Z,44.57
2017-11-24T23:09:41.647Z,40.27
2017-11-24T23:12:09.305Z,50.20
2017-11-24T23:14:36.830Z,44.67
2017-11-24T23:17:04.376Z,47.17
2017-11-24T23:19:32.035Z,39.10
2017-11-24T23:21:59.562Z,47.63
2017-11-24T23:24:27.073Z,46.93
2017-11-24T23:26:54.634Z,46.53
2017-11-24T23:29:22.199Z,48.67
2017-11-24T23:31:49.719Z,51.13
2017-11-24T23:34:17.526Z,48.23
2017-11-24T23:36:45.041Z,42.17
2017-11-24T23:39:12.568Z,37.03
2017-11-24T23:41:40.157Z,47.77
2017-11-24T23:44:07.673Z,43.10
2017-11-24T23:46:35.188Z,45.87
2017-11-24T23:49:02.758Z,51.87
2017-11-24T23:51:30.269Z,47.17
2017-11-24T23:53:57.802Z,54.70
2017-11-24T23:56:25.351Z,55.10
2017-11-24T23:58:52.878Z,56.30
